Time,TemperatureF,DewpointF,PressureIn,WindDirection,WindDirectionDegrees,WindSpeedMPH,WindSpeedGustMPH,Humidity,HourlyPrecipIn,Conditions,Clouds,dailyrainin,SoftwareType,DateUTC
2013-04-27 00:03:00,37.7,25.2,29.46,North,0,0.0,-999.0,60,0.00,,,-99.99,,2013-04-27 08:03:00,
2013-04-27 00:08:00,37.5,25.3,29.46,North,0,0.0,-999.0,60,0.00,,,-99.99,,2013-04-27 08:08:00,
2013-04-27 00:13:00,37.1,24.9,29.46,North,0,0.0,-999.0,61,0.00,,,-99.99,,2013-04-27 08:13:00,
2013-04-27 00:18:00,37.2,25.2,29.46,North,0,0.0,-999.0,61,0.00,,,-99.99,,2013-04-27 08:18:00,
2013-04-27 00:23:00,37.1,24.9,29.46,North,0,0.0,-999.0,60,0.00,,,-99.99,,2013-04-27 08:23:00,
2013-04-27 00:28:00,37.1,24.8,29.46,North,0,0.0,-999.0,60,0.00,,,-99.99,,2013-04-27 08:28:00,
2013-04-27 00:33:00,37.0,24.6,29.46,North,0,0.0,-999.0,60,0.00,,,-99.99,,2013-04-27 08:33:00,
2013-04-27 00:38:00,37.3,25.1,29.46,North,0,0.0,-999.0,61,0.00,,,-99.99,,2013-04-27 08:38:00,
2013-04-27 00:43:00,37.2,24.9,29.46,North,0,0.0,-999.0,60,0.00,,,-99.99,,2013-04-27 08:43:00,
2013-04-27 00:48:00,37.0,24.6,29.46,North,0,0.0,-999.0,60,0.00,,,-99.99,,2013-04-27 08:48:00,
2013-04-27 00:53:00,37.2,24.7,29.46,North,0,0.0,-999.0,60,0.00,,,-99.99,,2013-04-27 08:53:00,
2013-04-27 00:58:00,36.7,25.1,29.46,North,0,0.0,-999.0,62,0.00,,,-99.99,,2013-04-27 08:58:00,
2013-04-27 01:03:00,36.5,25.0,29.46,North,0,0.0,-999.0,62,0.00,,,-99.99,,2013-04-27 09:03:00,
2013-04-27 01:08:00,36.5,25.5,29.46,North,0,0.0,-999.0,64,0.00,,,-99.99,,2013-04-27 09:08:00,
2013-04-27 01:13:00,36.3,25.5,29.46,North,0,0.0,-999.0,64,0.00,,,-99.99,,2013-04-27 09:13:00,
2013-04-27 01:18:00,36.3,25.6,29.46,North,0,0.0,-999.0,64,0.00,,,-99.99,,2013-04-27 09:18:00,
2013-04-27 01:23:00,36.1,25.2,29.46,North,0,0.0,-999.0,64,0.00,,,-99.99,,2013-04-27 09:23:00,
2013-04-27 01:28:00,36.1,25.2,29.46,North,0,0.0,-999.0,64,0.00,,,-99.99,,2013-04-27 09:28:00,
2013-04-27 01:33:00,36.2,25.0,29.46,North,0,0.0,-999.0,63,0.00,,,-99.99,,2013-04-27 09:33:00,
2013-04-27 01:38:00,36.4,24.9,29.46,North,0,0.0,-999.0,62,0.00,,,-99.99,,2013-04-27 09:38:00,
2013-04-27 01:43:00,36.3,24.7,29.46,North,0,0.0,-999.0,62,0.00,,,-99.99,,2013-04-27 09:43:00,
2013-04-27 01:48:00,36.5,25.2,29.46,North,0,0.0,-999.0,63,0.00,,,-99.99,,2013-04-27 09:48:00,
2013-04-27 01:53:00,36.7,24.9,29.46,North,0,0.0,-999.0,61,0.00,,,-99.99,,2013-04-27 09:53:00,
2013-04-27 01:58:00,36.7,24.8,29.46,North,0,0.0,-999.0,61,0.00,,,-99.99,,2013-04-27 09:58:00,
2013-04-27 02:03:00,36.8,25.1,29.48,North,0,0.0,-999.0,62,0.00,,,-99.99,,2013-04-27 10:03:00,
2013-04-27 02:08:00,36.9,25.1,29.48,North,0,0.0,-999.0,62,0.00,,,-99.99,,2013-04-27 10:08:00,
2013-04-27 02:13:00,36.9,24.8,29.48,North,0,0.0,-999.0,61,0.00,,,-99.99,,2013-04-27 10:13:00,
2013-04-27 02:18:00,37.1,25.9,29.48,North,0,0.0,-999.0,63,0.00,,,-99.99,,2013-04-27 10:18:00,
2013-04-27 02:23:00,37.2,24.1,29.48,North,0,0.0,-999.0,58,0.00,,,-99.99,,2013-04-27 10:23:00,
2013-04-27 02:28:00,37.8,25.0,29.48,North,0,0.0,-999.0,59,0.00,,,-99.99,,2013-04-27 10:28:00,
2013-04-27 02:33:00,37.5,24.7,29.48,North,0,0.0,-999.0,59,0.00,,,-99.99,,2013-04-27 10:33:00,
2013-04-27 02:38:00,37.2,24.8,29.48,North,0,0.0,-999.0,60,0.00,,,-99.99,,2013-04-27 10:38:00,
2013-04-27 02:43:00,37.1,24.2,29.48,North,0,0.0,-999.0,59,0.00,,,-99.99,,2013-04-27 10:43:00,
2013-04-27 02:48:00,37.3,23.7,29.48,North,0,0.0,-999.0,57,0.00,,,-99.99,,2013-04-27 10:48:00,
2013-04-27 02:53:00,37.0,23.8,29.48,North,0,0.0,-999.0,58,0.00,,,-99.99,,2013-04-27 10:53:00,
2013-04-27 02:58:00,36.9,23.4,29.48,North,0,0.0,-999.0,57,0.00,,,-99.99,,2013-04-27 10:58:00,
2013-04-27 03:03:00,36.8,23.1,29.48,North,0,0.0,-999.0,57,0.00,,,-99.99,,2013-04-27 11:03:00,
2013-04-27 03:08:00,36.9,23.0,29.48,North,0,0.0,-999.0,56,0.00,,,-99.99,,2013-04-27 11:08:00,
2013-04-27 03:13:00,36.8,22.9,29.48,North,0,0.0,-999.0,56,0.00,,,-99.99,,2013-04-27 11:13:00,
2013-04-27 03:18:00,36.6,22.6,29.48,North,0,0.0,-999.0,56,0.00,,,-99.99,,2013-04-27 11:18:00,
2013-04-27 03:23:00,36.2,22.7,29.48,North,0,0.0,-999.0,57,0.00,,,-99.99,,2013-04-27 11:23:00,
2013-04-27 03:28:00,36.0,23.7,29.48,North,0,0.0,-999.0,60,0.00,,,-99.99,,2013-04-27 11:28:00,
2013-04-27 03:33:00,35.6,22.8,29.48,North,0,0.0,-999.0,59,0.00,,,-99.99,,2013-04-27 11:33:00,
2013-04-27 03:38:00,35.3,23.5,29.48,North,0,0.0,-999.0,61,0.00,,,-99.99,,2013-04-27 11:38:00,
2013-04-27 03:43:00,35.3,23.7,29.48,North,0,0.0,-999.0,62,0.00,,,-99.99,,2013-04-27 11:43:00,
2013-04-27 03:48:00,35.5,24.0,29.48,North,0,0.0,-999.0,62,0.00,,,-99.99,,2013-04-27 11:48:00,
2013-04-27 03:53:00,35.8,24.2,29.48,North,0,0.0,-999.0,62,0.00,,,-99.99,,2013-04-27 11:53:00,
2013-04-27 03:58:00,36.2,24.4,29.48,North,0,0.0,-999.0,61,0.00,,,-99.99,,2013-04-27 11:58:00,
2013-04-27 04:03:00,36.2,24.5,29.47,North,0,0.0,-999.0,62,0.00,,,-99.99,,2013-04-27 12:03:00,
2013-04-27 04:10:00,36.2,24.5,29.47,North,0,0.0,-999.0,62,0.00,,,-99.99,,2013-04-27 12:10:00,
2013-04-27 04:15:00,36.6,24.6,29.47,North,0,0.0,-999.0,61,0.00,,,-99.99,,2013-04-27 12:15:00,
2013-04-27 04:20:00,36.4,25.7,29.47,North,0,0.0,-999.0,64,0.00,,,-99.99,,2013-04-27 12:20:00,
2013-04-27 04:25:00,36.5,26.0,29.47,North,0,0.0,-999.0,65,0.00,,,-99.99,,2013-04-27 12:25:00,
2013-04-27 04:30:00,35.9,25.4,29.47,North,0,0.0,-999.0,65,0.00,,,-99.99,,2013-04-27 12:30:00,
2013-04-27 04:35:00,35.9,25.0,29.47,North,0,0.0,-999.0,64,0.00,,,-99.99,,2013-04-27 12:35:00,
2013-04-27 04:40:00,35.8,24.5,29.47,North,0,0.0,-999.0,63,0.00,,,-99.99,,2013-04-27 12:40:00,
2013-04-27 04:45:00,35.8,24.8,29.47,North,0,0.0,-999.0,63,0.00,,,-99.99,,2013-04-27 12:45:00,
2013-04-27 04:50:00,35.9,24.5,29.47,North,0,0.0,-999.0,62,0.00,,,-99.99,,2013-04-27 12:50:00,
2013-04-27 04:55:00,35.7,24.6,29.47,North,0,0.0,-999.0,63,0.00,,,-99.99,,2013-04-27 12:55:00,
2013-04-27 05:00:00,35.5,24.8,29.49,North,0,0.0,-999.0,64,0.00,,,-99.99,,2013-04-27 13:00:00,
2013-04-27 05:05:00,35.8,25.4,29.49,North,0,0.0,-999.0,65,0.00,,,-99.99,,2013-04-27 13:05:00,
2013-04-27 05:10:00,36.1,25.5,29.49,North,0,0.0,-999.0,65,0.00,,,-99.99,,2013-04-27 13:10:00,
2013-04-27 05:15:00,35.9,25.5,29.49,North,0,0.0,-999.0,65,0.00,,,-99.99,,2013-04-27 13:15:00,
2013-04-27 05:22:00,36.1,25.6,29.49,North,0,0.0,-999.0,65,0.00,,,-99.99,,2013-04-27 13:22:00,
2013-04-27 05:27:00,35.9,25.7,29.49,North,0,0.0,-999.0,66,0.00,,,-99.99,,2013-04-27 13:27:00,
2013-04-27 05:32:00,35.9,25.5,29.49,North,0,0.0,-999.0,65,0.00,,,-99.99,,2013-04-27 13:32:00,
2013-04-27 05:37:00,35.6,26.0,29.49,North,0,0.0,-999.0,67,0.00,,,-99.99,,2013-04-27 13:37:00,
2013-04-27 05:42:00,35.5,25.7,29.49,North,0,0.0,-999.0,67,0.00,,,-99.99,,2013-04-27 13:42:00,
2013-04-27 05:48:00,35.7,26.1,29.49,North,0,0.0,-999.0,67,0.00,,,-99.99,,2013-04-27 13:48:00,
2013-04-27 05:53:00,35.5,25.8,29.49,North,0,0.0,-999.0,67,0.00,,,-99.99,,2013-04-27 13:53:00,
2013-04-27 05:58:00,35.3,25.8,29.49,North,0,0.0,-999.0,67,0.00,,,-99.99,,2013-04-27 13:58:00,
2013-04-27 06:03:00,35.2,26.0,29.50,North,0,0.0,-999.0,68,0.00,,,-99.99,,2013-04-27 14:03:00,
2013-04-27 06:08:00,35.0,25.9,29.50,North,0,0.0,-999.0,69,0.00,,,-99.99,,2013-04-27 14:08:00,
2013-04-27 06:13:00,34.9,26.1,29.50,North,0,0.0,-999.0,69,0.00,,,-99.99,,2013-04-27 14:13:00,
2013-04-27 06:18:00,35.0,26.4,29.50,North,0,0.0,-999.0,70,0.00,,,-99.99,,2013-04-27 14:18:00,
2013-04-27 06:23:00,35.0,26.9,29.50,North,0,0.0,-999.0,72,0.00,,,-99.99,,2013-04-27 14:23:00,
2013-04-27 06:28:00,35.0,27.1,29.50,North,0,0.0,-999.0,72,0.00,,,-99.99,,2013-04-27 14:28:00,
2013-04-27 06:33:00,35.0,27.1,29.50,North,0,0.0,-999.0,72,0.00,,,-99.99,,2013-04-27 14:33:00,
2013-04-27 06:38:00,34.7,27.2,29.50,North,0,0.0,-999.0,73,0.00,,,-99.99,,2013-04-27 14:38:00,
2013-04-27 06:43:00,34.8,27.1,29.50,North,0,0.0,-999.0,73,0.00,,,-99.99,,2013-04-27 14:43:00,
2013-04-27 06:48:00,34.5,26.7,29.50,North,0,0.0,-999.0,72,0.00,,,-99.99,,2013-04-27 14:48:00,
2013-04-27 06:53:00,34.4,26.7,29.50,North,0,0.0,-999.0,73,0.00,,,-99.99,,2013-04-27 14:53:00,
2013-04-27 06:58:00,34.3,26.7,29.50,North,0,0.0,-999.0,73,0.00,,,-99.99,,2013-04-27 14:58:00,
2013-04-27 07:03:00,34.5,26.5,29.52,North,0,0.0,-999.0,72,0.00,,,-99.99,,2013-04-27 15:03:00,
2013-04-27 07:08:00,34.3,26.5,29.52,North,0,0.0,-999.0,72,0.00,,,-99.99,,2013-04-27 15:08:00,
2013-04-27 07:13:00,34.2,26.3,29.52,North,0,0.0,-999.0,72,0.00,,,-99.99,,2013-04-27 15:13:00,
2013-04-27 07:18:00,34.7,26.9,29.52,North,0,0.0,-999.0,72,0.00,,,-99.99,,2013-04-27 15:18:00,
2013-04-27 07:23:00,34.7,27.0,29.52,North,0,0.0,-999.0,73,0.00,,,-99.99,,2013-04-27 15:23:00,
2013-04-27 07:28:00,34.4,27.1,29.52,North,0,0.0,-999.0,74,0.00,,,-99.99,,2013-04-27 15:28:00,
2013-04-27 07:33:00,34.7,27.5,29.52,North,0,0.0,-999.0,74,0.00,,,-99.99,,2013-04-27 15:33:00,
2013-04-27 07:38:00,34.7,27.6,29.52,North,0,0.0,-999.0,75,0.00,,,-99.99,,2013-04-27 15:38:00,
2013-04-27 07:43:00,34.7,27.7,29.52,North,0,0.0,-999.0,75,0.00,,,-99.99,,2013-04-27 15:43:00,
2013-04-27 07:48:00,34.7,27.6,29.52,North,0,0.0,-999.0,75,0.00,,,-99.99,,2013-04-27 15:48:00,
2013-04-27 07:53:00,34.3,27.4,29.52,North,0,0.0,-999.0,75,0.00,,,-99.99,,2013-04-27 15:53:00,
2013-04-27 07:58:00,34.5,27.8,29.52,North,0,0.0,-999.0,76,0.00,,,-99.99,,2013-04-27 15:58:00,
2013-04-27 08:03:00,34.7,27.9,29.55,North,0,0.0,-999.0,76,0.00,,,-99.99,,2013-04-27 16:03:00,
2013-04-27 08:08:00,34.7,28.0,29.55,North,0,0.0,-999.0,76,0.00,,,-99.99,,2013-04-27 16:08:00,
2013-04-27 08:13:00,34.7,27.7,29.55,North,0,0.0,-999.0,75,0.00,,,-99.99,,2013-04-27 16:13:00,
2013-04-27 08:18:00,34.8,27.7,29.55,North,0,0.0,-999.0,75,0.00,,,-99.99,,2013-04-27 16:18:00,
2013-04-27 08:23:00,34.8,27.7,29.55,North,0,0.0,-999.0,75,0.00,,,-99.99,,2013-04-27 16:23:00,
2013-04-27 08:28:00,34.5,27.8,29.55,North,0,0.0,-999.0,76,0.00,,,-99.99,,2013-04-27 16:28:00,
2013-04-27 08:33:00,34.6,28.9,29.55,North,0,0.0,-999.0,79,0.00,,,-99.99,,2013-04-27 16:33:00,
2013-04-27 08:38:00,34.2,29.0,29.55,North,0,0.0,-999.0,81,0.00,,,-99.99,,2013-04-27 16:38:00,
2013-04-27 08:43:00,34.3,29.7,29.55,North,0,0.0,-999.0,82,0.00,,,-99.99,,2013-04-27 16:43:00,
2013-04-27 08:48:00,34.3,29.8,29.55,North,0,0.0,-999.0,83,0.00,,,-99.99,,2013-04-27 16:48:00,
2013-04-27 08:53:00,34.2,29.9,29.55,North,0,0.0,-999.0,84,0.00,,,-99.99,,2013-04-27 16:53:00,
2013-04-27 08:58:00,34.5,30.3,29.55,North,0,0.0,-999.0,84,0.00,,,-99.99,,2013-04-27 16:58:00,
2013-04-27 09:03:00,34.3,30.2,29.57,North,0,0.0,-999.0,84,0.00,,,-99.99,,2013-04-27 17:03:00,
2013-04-27 09:08:00,34.4,30.3,29.57,North,0,0.0,-999.0,84,0.00,,,-99.99,,2013-04-27 17:08:00,
2013-04-27 09:13:00,34.5,30.0,29.57,North,0,0.0,-999.0,83,0.00,,,-99.99,,2013-04-27 17:13:00,
2013-04-27 09:18:00,34.8,30.3,29.57,North,0,0.0,-999.0,83,0.00,,,-99.99,,2013-04-27 17:18:00,
2013-04-27 09:23:00,34.8,30.4,29.57,North,0,0.0,-999.0,83,0.00,,,-99.99,,2013-04-27 17:23:00,
2013-04-27 09:28:00,34.5,30.4,29.57,North,0,0.0,-999.0,84,0.00,,,-99.99,,2013-04-27 17:28:00,
2013-04-27 09:33:00,34.9,30.3,29.57,North,0,0.0,-999.0,82,0.00,,,-99.99,,2013-04-27 17:33:00,
2013-04-27 09:38:00,35.1,30.5,29.57,North,0,0.0,-999.0,83,0.00,,,-99.99,,2013-04-27 17:38:00,
2013-04-27 09:43:00,34.8,30.0,29.57,North,0,0.0,-999.0,82,0.00,,,-99.99,,2013-04-27 17:43:00,
2013-04-27 09:48:00,34.8,29.8,29.57,North,0,0.0,-999.0,81,0.00,,,-99.99,,2013-04-27 17:48:00,
2013-04-27 09:53:00,35.0,30.2,29.57,North,0,0.0,-999.0,82,0.00,,,-99.99,,2013-04-27 17:53:00,
2013-04-27 09:58:00,35.5,29.9,29.57,North,0,0.0,-999.0,79,0.00,,,-99.99,,2013-04-27 17:58:00,
2013-04-27 10:03:00,35.6,29.9,29.59,North,0,0.0,-999.0,79,0.00,,,-99.99,,2013-04-27 18:03:00,
2013-04-27 10:08:00,36.1,29.7,29.59,North,0,0.0,-999.0,77,0.00,,,-99.99,,2013-04-27 18:08:00,
2013-04-27 10:13:00,36.0,29.6,29.59,North,0,0.0,-999.0,77,0.00,,,-99.99,,2013-04-27 18:13:00,
2013-04-27 10:18:00,36.1,28.9,29.59,North,0,0.0,-999.0,75,0.00,,,-99.99,,2013-04-27 18:18:00,
2013-04-27 10:23:00,36.4,29.2,29.59,North,0,0.0,-999.0,74,0.00,,,-99.99,,2013-04-27 18:23:00,
2013-04-27 10:28:00,37.4,28.2,29.59,North,0,0.0,-999.0,69,0.00,,,-99.99,,2013-04-27 18:28:00,
2013-04-27 10:33:00,38.2,29.5,29.59,North,0,0.0,-999.0,70,0.00,,,-99.99,,2013-04-27 18:33:00,
2013-04-27 10:38:00,38.2,29.1,29.59,North,0,0.0,-999.0,69,0.00,,,-99.99,,2013-04-27 18:38:00,
2013-04-27 10:43:00,38.2,29.0,29.59,North,0,0.0,-999.0,69,0.00,,,-99.99,,2013-04-27 18:43:00,
2013-04-27 10:48:00,37.7,28.7,29.59,North,0,0.0,-999.0,69,0.00,,,-99.99,,2013-04-27 18:48:00,
2013-04-27 10:53:00,38.0,28.0,29.59,North,0,0.0,-999.0,67,0.00,,,-99.99,,2013-04-27 18:53:00,
2013-04-27 10:58:00,38.6,29.1,29.59,North,0,0.0,-999.0,68,0.00,,,-99.99,,2013-04-27 18:58:00,
2013-04-27 11:03:00,39.4,29.1,29.61,North,0,0.0,-999.0,66,0.00,,,-99.99,,2013-04-27 19:03:00,
2013-04-27 11:08:00,39.5,28.3,29.61,North,0,0.0,-999.0,63,0.00,,,-99.99,,2013-04-27 19:08:00,
2013-04-27 11:13:00,39.1,28.3,29.61,North,0,0.0,-999.0,64,0.00,,,-99.99,,2013-04-27 19:13:00,
2013-04-27 11:18:00,39.5,29.0,29.61,North,0,0.0,-999.0,65,0.00,,,-99.99,,2013-04-27 19:18:00,
2013-04-27 11:23:00,40.5,28.7,29.61,North,0,0.0,-999.0,62,0.00,,,-99.99,,2013-04-27 19:23:00,
2013-04-27 11:28:00,40.4,29.8,29.61,North,0,0.0,-999.0,65,0.00,,,-99.99,,2013-04-27 19:28:00,
2013-04-27 11:33:00,41.2,27.6,29.61,North,0,0.0,-999.0,58,0.00,,,-99.99,,2013-04-27 19:33:00,
2013-04-27 11:38:00,40.7,28.0,29.61,North,0,0.0,-999.0,60,0.00,,,-99.99,,2013-04-27 19:38:00,
2013-04-27 11:43:00,40.9,27.9,29.61,North,0,0.0,-999.0,59,0.00,,,-99.99,,2013-04-27 19:43:00,
2013-04-27 11:48:00,41.0,28.1,29.61,North,0,0.0,-999.0,59,0.00,,,-99.99,,2013-04-27 19:48:00,
2013-04-27 11:53:00,41.2,28.9,29.61,North,0,0.0,-999.0,61,0.00,,,-99.99,,2013-04-27 19:53:00,
2013-04-27 11:58:00,40.8,26.6,29.61,North,0,0.0,-999.0,56,0.00,,,-99.99,,2013-04-27 19:58:00,
2013-04-27 12:03:00,40.9,27.8,29.62,North,0,0.0,-999.0,59,0.00,,,-99.99,,2013-04-27 20:03:00,
2013-04-27 12:08:00,41.1,27.6,29.62,North,0,0.0,-999.0,58,0.00,,,-99.99,,2013-04-27 20:08:00,
2013-04-27 12:13:00,41.8,29.0,29.62,North,0,0.0,-999.0,60,0.00,,,-99.99,,2013-04-27 20:13:00,
2013-04-27 12:18:00,41.4,27.8,29.62,North,0,0.0,-999.0,58,0.00,,,-99.99,,2013-04-27 20:18:00,
2013-04-27 12:23:00,41.5,28.7,29.62,North,0,0.0,-999.0,60,0.00,,,-99.99,,2013-04-27 20:23:00,
2013-04-27 12:28:00,41.6,27.3,29.62,North,0,0.0,-999.0,56,0.00,,,-99.99,,2013-04-27 20:28:00,
2013-04-27 12:33:00,41.5,27.8,29.62,North,0,0.0,-999.0,57,0.00,,,-99.99,,2013-04-27 20:33:00,
2013-04-27 12:38:00,42.1,28.0,29.62,North,0,0.0,-999.0,56,0.00,,,-99.99,,2013-04-27 20:38:00,
2013-04-27 12:43:00,41.5,26.3,29.62,North,0,0.0,-999.0,54,0.00,,,-99.99,,2013-04-27 20:43:00,
2013-04-27 12:48:00,42.9,27.6,29.62,North,0,0.0,-999.0,54,0.00,,,-99.99,,2013-04-27 20:48:00,
2013-04-27 12:53:00,42.2,26.6,29.62,North,0,0.0,-999.0,53,0.00,,,-99.99,,2013-04-27 20:53:00,
2013-04-27 12:58:00,42.0,26.4,29.62,North,0,0.0,-999.0,53,0.00,,,-99.99,,2013-04-27 20:58:00,
2013-04-27 13:03:00,41.5,25.8,29.65,North,0,0.0,-999.0,53,0.00,,,-99.99,,2013-04-27 21:03:00,
2013-04-27 13:08:00,41.6,26.7,29.65,North,0,0.0,-999.0,55,0.00,,,-99.99,,2013-04-27 21:08:00,
2013-04-27 13:13:00,42.5,26.5,29.65,North,0,0.0,-999.0,52,0.00,,,-99.99,,2013-04-27 21:13:00,
2013-04-27 13:18:00,43.0,24.7,29.65,North,0,0.0,-999.0,48,0.00,,,-99.99,,2013-04-27 21:18:00,
2013-04-27 13:23:00,42.6,22.2,29.65,North,0,0.0,-999.0,43,0.00,,,-99.99,,2013-04-27 21:23:00,
2013-04-27 13:28:00,43.5,23.5,29.65,North,0,0.0,-999.0,44,0.00,,,-99.99,,2013-04-27 21:28:00,
2013-04-27 13:33:00,43.2,25.1,29.65,North,0,0.0,-999.0,48,0.00,,,-99.99,,2013-04-27 21:33:00,
2013-04-27 13:38:00,43.2,23.3,29.65,North,0,0.0,-999.0,44,0.00,,,-99.99,,2013-04-27 21:38:00,
2013-04-27 13:43:00,42.8,23.9,29.65,North,0,0.0,-999.0,47,0.00,,,-99.99,,2013-04-27 21:43:00,
2013-04-27 13:48:00,42.2,23.1,29.65,North,0,0.0,-999.0,46,0.00,,,-99.99,,2013-04-27 21:48:00,
2013-04-27 13:53:00,42.5,23.6,29.65,North,0,0.0,-999.0,46,0.00,,,-99.99,,2013-04-27 21:53:00,
2013-04-27 13:58:00,42.6,23.1,29.65,North,0,0.0,-999.0,45,0.00,,,-99.99,,2013-04-27 21:58:00,
2013-04-27 14:03:00,42.1,21.5,29.66,North,0,0.0,-999.0,43,0.00,,,-99.99,,2013-04-27 22:03:00,
2013-04-27 14:08:00,42.4,22.2,29.66,North,0,0.0,-999.0,44,0.00,,,-99.99,,2013-04-27 22:08:00,
2013-04-27 14:13:00,42.9,23.5,29.66,North,0,0.0,-999.0,45,0.00,,,-99.99,,2013-04-27 22:13:00,
2013-04-27 14:18:00,42.7,22.1,29.66,North,0,0.0,-999.0,43,0.00,,,-99.99,,2013-04-27 22:18:00,
2013-04-27 14:23:00,42.5,22.4,29.66,North,0,0.0,-999.0,44,0.00,,,-99.99,,2013-04-27 22:23:00,
2013-04-27 14:28:00,42.0,22.0,29.66,North,0,0.0,-999.0,44,0.00,,,-99.99,,2013-04-27 22:28:00,
2013-04-27 14:34:00,42.6,20.7,29.66,North,0,0.0,-999.0,41,0.00,,,-99.99,,2013-04-27 22:34:00,
2013-04-27 14:39:00,42.5,20.9,29.66,North,0,0.0,-999.0,41,0.00,,,-99.99,,2013-04-27 22:39:00,
2013-04-27 14:44:00,43.2,23.2,29.66,North,0,0.0,-999.0,44,0.00,,,-99.99,,2013-04-27 22:44:00,
2013-04-27 14:49:00,42.8,21.3,29.66,North,0,0.0,-999.0,42,0.00,,,-99.99,,2013-04-27 22:49:00,
2013-04-27 14:54:00,42.6,22.1,29.66,North,0,0.0,-999.0,43,0.00,,,-99.99,,2013-04-27 22:54:00,
2013-04-27 14:59:00,42.8,21.5,29.69,North,0,0.0,-999.0,42,0.00,,,-99.99,,2013-04-27 22:59:00,
2013-04-27 15:04:00,42.7,21.1,29.69,North,0,0.0,-999.0,41,0.00,,,-99.99,,2013-04-27 23:04:00,
2013-04-27 15:09:00,43.2,22.4,29.69,North,0,0.0,-999.0,43,0.00,,,-99.99,,2013-04-27 23:09:00,
2013-04-27 15:14:00,43.2,21.3,29.69,North,0,0.0,-999.0,41,0.00,,,-99.99,,2013-04-27 23:14:00,
2013-04-27 15:19:00,42.7,21.5,29.69,North,0,0.0,-999.0,42,0.00,,,-99.99,,2013-04-27 23:19:00,
2013-04-27 15:24:00,42.4,21.4,29.69,North,0,0.0,-999.0,42,0.00,,,-99.99,,2013-04-27 23:24:00,
2013-04-27 15:29:00,42.7,21.7,29.69,North,0,0.0,-999.0,42,0.00,,,-99.99,,2013-04-27 23:29:00,
2013-04-27 15:34:00,42.6,21.5,29.69,North,0,0.0,-999.0,42,0.00,,,-99.99,,2013-04-27 23:34:00,
2013-04-27 15:39:00,43.0,22.0,29.69,North,0,0.0,-999.0,42,0.00,,,-99.99,,2013-04-27 23:39:00,
2013-04-27 15:44:00,42.6,22.3,29.69,North,0,0.0,-999.0,44,0.00,,,-99.99,,2013-04-27 23:44:00,
2013-04-27 15:49:00,43.3,21.8,29.69,North,0,0.0,-999.0,42,0.00,,,-99.99,,2013-04-27 23:49:00,
2013-04-27 15:54:00,42.8,21.6,29.69,North,0,0.0,-999.0,42,0.00,,,-99.99,,2013-04-27 23:54:00,
2013-04-27 15:59:00,41.7,21.4,29.71,North,0,0.0,-999.0,44,0.00,,,-99.99,,2013-04-27 23:59:00,
2013-04-27 16:04:00,42.4,21.4,29.71,North,0,0.0,-999.0,42,0.00,,,-99.99,,2013-04-28 00:04:00,
2013-04-27 16:09:00,41.9,21.6,29.71,North,0,0.0,-999.0,44,0.00,,,-99.99,,2013-04-28 00:09:00,
2013-04-27 16:14:00,41.7,22.0,29.71,North,0,0.0,-999.0,45,0.00,,,-99.99,,2013-04-28 00:14:00,
2013-04-27 16:19:00,42.2,21.9,29.71,North,0,0.0,-999.0,44,0.00,,,-99.99,,2013-04-28 00:19:00,
2013-04-27 16:24:00,42.0,22.7,29.71,North,0,0.0,-999.0,46,0.00,,,-99.99,,2013-04-28 00:24:00,
2013-04-27 16:29:00,41.8,22.7,29.71,North,0,0.0,-999.0,46,0.00,,,-99.99,,2013-04-28 00:29:00,
2013-04-27 16:34:00,41.6,22.4,29.71,North,0,0.0,-999.0,46,0.00,,,-99.99,,2013-04-28 00:34:00,
2013-04-27 16:39:00,42.3,22.9,29.71,North,0,0.0,-999.0,45,0.00,,,-99.99,,2013-04-28 00:39:00,
2013-04-27 16:44:00,42.2,21.7,29.71,North,0,0.0,-999.0,43,0.00,,,-99.99,,2013-04-28 00:44:00,
2013-04-27 16:49:00,41.9,22.5,29.71,North,0,0.0,-999.0,45,0.00,,,-99.99,,2013-04-28 00:49:00,
2013-04-27 16:54:00,41.8,21.5,29.71,North,0,0.0,-999.0,44,0.00,,,-99.99,,2013-04-28 00:54:00,
2013-04-27 16:59:00,41.8,23.5,29.73,North,0,0.0,-999.0,48,0.00,,,-99.99,,2013-04-28 00:59:00,
2013-04-27 17:04:00,41.9,23.4,29.73,North,0,0.0,-999.0,47,0.00,,,-99.99,,2013-04-28 01:04:00,
2013-04-27 17:09:00,42.7,22.5,29.73,North,0,0.0,-999.0,44,0.00,,,-99.99,,2013-04-28 01:09:00,
2013-04-27 17:14:00,42.1,22.9,29.73,North,0,0.0,-999.0,46,0.00,,,-99.99,,2013-04-28 01:14:00,
2013-04-27 17:19:00,42.3,21.8,29.73,North,0,0.0,-999.0,43,0.00,,,-99.99,,2013-04-28 01:19:00,
2013-04-27 17:24:00,42.3,21.9,29.73,North,0,0.0,-999.0,43,0.00,,,-99.99,,2013-04-28 01:24:00,
2013-04-27 17:29:00,41.6,21.6,29.73,North,0,0.0,-999.0,44,0.00,,,-99.99,,2013-04-28 01:29:00,
2013-04-27 17:34:00,41.5,21.6,29.73,North,0,0.0,-999.0,44,0.00,,,-99.99,,2013-04-28 01:34:00,
2013-04-27 17:39:00,41.4,22.2,29.73,North,0,0.0,-999.0,46,0.00,,,-99.99,,2013-04-28 01:39:00,
2013-04-27 17:44:00,42.2,24.2,29.73,North,0,0.0,-999.0,48,0.00,,,-99.99,,2013-04-28 01:44:00,
2013-04-27 17:49:00,42.5,22.8,29.73,North,0,0.0,-999.0,45,0.00,,,-99.99,,2013-04-28 01:49:00,
2013-04-27 17:54:00,42.0,22.2,29.73,North,0,0.0,-999.0,45,0.00,,,-99.99,,2013-04-28 01:54:00,
2013-04-27 17:59:00,41.8,23.4,29.76,North,0,0.0,-999.0,47,0.00,,,-99.99,,2013-04-28 01:59:00,
2013-04-27 18:04:00,41.5,21.7,29.76,North,0,0.0,-999.0,44,0.00,,,-99.99,,2013-04-28 02:04:00,
2013-04-27 18:09:00,41.0,22.9,29.76,North,0,0.0,-999.0,48,0.00,,,-99.99,,2013-04-28 02:09:00,
2013-04-27 18:14:00,42.0,22.9,29.76,North,0,0.0,-999.0,46,0.00,,,-99.99,,2013-04-28 02:14:00,
2013-04-27 18:19:00,41.8,20.9,29.76,North,0,0.0,-999.0,42,0.00,,,-99.99,,2013-04-28 02:19:00,
2013-04-27 18:24:00,41.4,21.7,29.76,North,0,0.0,-999.0,45,0.00,,,-99.99,,2013-04-28 02:24:00,
2013-04-27 18:29:00,40.8,22.0,29.76,North,0,0.0,-999.0,46,0.00,,,-99.99,,2013-04-28 02:29:00,
2013-04-27 18:34:00,40.3,21.1,29.76,North,0,0.0,-999.0,45,0.00,,,-99.99,,2013-04-28 02:34:00,
2013-04-27 18:39:00,40.2,22.2,29.76,North,0,0.0,-999.0,48,0.00,,,-99.99,,2013-04-28 02:39:00,
2013-04-27 18:44:00,40.0,21.3,29.76,North,0,0.0,-999.0,46,0.00,,,-99.99,,2013-04-28 02:44:00,
2013-04-27 18:49:00,39.7,22.3,29.76,North,0,0.0,-999.0,49,0.00,,,-99.99,,2013-04-28 02:49:00,
2013-04-27 18:54:00,39.7,21.3,29.76,North,0,0.0,-999.0,47,0.00,,,-99.99,,2013-04-28 02:54:00,
2013-04-27 18:59:00,39.3,21.6,29.77,North,0,0.0,-999.0,48,0.00,,,-99.99,,2013-04-28 02:59:00,
2013-04-27 19:04:00,39.8,21.6,29.77,North,0,0.0,-999.0,47,0.00,,,-99.99,,2013-04-28 03:04:00,
2013-04-27 19:09:00,39.2,21.6,29.77,North,0,0.0,-999.0,48,0.00,,,-99.99,,2013-04-28 03:09:00,
2013-04-27 19:14:00,38.9,21.7,29.77,North,0,0.0,-999.0,49,0.00,,,-99.99,,2013-04-28 03:14:00,
2013-04-27 19:19:00,39.0,21.8,29.77,North,0,0.0,-999.0,49,0.00,,,-99.99,,2013-04-28 03:19:00,
2013-04-27 19:24:00,38.9,22.4,29.77,North,0,0.0,-999.0,51,0.00,,,-99.99,,2013-04-28 03:24:00,
2013-04-27 19:29:00,38.8,21.7,29.77,North,0,0.0,-999.0,49,0.00,,,-99.99,,2013-04-28 03:29:00,
2013-04-27 19:34:00,38.9,22.1,29.77,North,0,0.0,-999.0,50,0.00,,,-99.99,,2013-04-28 03:34:00,
2013-04-27 19:39:00,39.1,21.7,29.77,North,0,0.0,-999.0,49,0.00,,,-99.99,,2013-04-28 03:39:00,
2013-04-27 19:44:00,38.9,21.5,29.77,North,0,0.0,-999.0,49,0.00,,,-99.99,,2013-04-28 03:44:00,
2013-04-27 19:49:00,39.1,20.8,29.77,North,0,0.0,-999.0,47,0.00,,,-99.99,,2013-04-28 03:49:00,
2013-04-27 19:54:00,38.9,21.3,29.77,North,0,0.0,-999.0,48,0.00,,,-99.99,,2013-04-28 03:54:00,
2013-04-27 19:59:00,38.8,21.9,29.79,North,0,0.0,-999.0,50,0.00,,,-99.99,,2013-04-28 03:59:00,
2013-04-27 20:01:00,38.6,22.0,29.79,North,0,0.0,-999.0,50,0.00,,,-99.99,,2013-04-28 04:01:00,
2013-04-27 20:02:00,38.6,22.5,29.79,North,0,0.0,-999.0,52,0.00,,,-99.99,,2013-04-28 04:02:00,
2013-04-27 20:04:00,38.3,22.7,29.79,North,0,0.0,-999.0,53,0.00,,,-99.99,,2013-04-28 04:04:00,
2013-04-27 20:06:00,38.2,22.4,29.79,North,0,0.0,-999.0,52,0.00,,,-99.99,,2013-04-28 04:06:00,
2013-04-27 20:08:00,38.5,22.1,29.79,North,0,0.0,-999.0,51,0.00,,,-99.99,,2013-04-28 04:08:00,
2013-04-27 20:13:00,38.6,21.6,29.79,North,0,0.0,-999.0,50,0.00,,,-99.99,,2013-04-28 04:13:00,
2013-04-27 20:18:00,38.7,21.6,29.79,North,0,0.0,-999.0,49,0.00,,,-99.99,,2013-04-28 04:18:00,
2013-04-27 20:23:00,38.5,22.2,29.79,North,0,0.0,-999.0,51,0.00,,,-99.99,,2013-04-28 04:23:00,
2013-04-27 20:28:00,38.4,21.8,29.79,North,0,0.0,-999.0,50,0.00,,,-99.99,,2013-04-28 04:28:00,
2013-04-27 20:33:00,38.3,22.2,29.79,North,0,0.0,-999.0,52,0.00,,,-99.99,,2013-04-28 04:33:00,
2013-04-27 20:38:00,38.3,22.4,29.79,North,0,0.0,-999.0,52,0.00,,,-99.99,,2013-04-28 04:38:00,
2013-04-27 20:43:00,38.2,22.1,29.79,North,0,0.0,-999.0,51,0.00,,,-99.99,,2013-04-28 04:43:00,
2013-04-27 20:48:00,38.1,22.0,29.79,North,0,0.0,-999.0,51,0.00,,,-99.99,,2013-04-28 04:48:00,
2013-04-27 20:53:00,37.9,21.5,29.79,North,0,0.0,-999.0,51,0.00,,,-99.99,,2013-04-28 04:53:00,
2013-04-27 20:58:00,37.6,21.9,29.79,North,0,0.0,-999.0,52,0.00,,,-99.99,,2013-04-28 04:58:00,
2013-04-27 21:03:00,37.3,22.1,29.79,North,0,0.0,-999.0,53,0.00,,,-99.99,,2013-04-28 05:03:00,
2013-04-27 21:08:00,37.4,21.8,29.79,North,0,0.0,-999.0,52,0.00,,,-99.99,,2013-04-28 05:08:00,
2013-04-27 21:13:00,37.5,21.7,29.79,North,0,0.0,-999.0,52,0.00,,,-99.99,,2013-04-28 05:13:00,
2013-04-27 21:18:00,37.1,22.4,29.79,North,0,0.0,-999.0,54,0.00,,,-99.99,,2013-04-28 05:18:00,
2013-04-27 21:23:00,36.9,22.9,29.79,North,0,0.0,-999.0,56,0.00,,,-99.99,,2013-04-28 05:23:00,
2013-04-27 21:28:00,36.8,22.5,29.79,North,0,0.0,-999.0,55,0.00,,,-99.99,,2013-04-28 05:28:00,
2013-04-27 21:33:00,36.5,22.5,29.79,North,0,0.0,-999.0,56,0.00,,,-99.99,,2013-04-28 05:33:00,
2013-04-27 21:38:00,36.8,22.9,29.79,North,0,0.0,-999.0,56,0.00,,,-99.99,,2013-04-28 05:38:00,
2013-04-27 21:43:00,36.5,23.0,29.79,North,0,0.0,-999.0,57,0.00,,,-99.99,,2013-04-28 05:43:00,
2013-04-27 21:48:00,36.6,22.3,29.79,North,0,0.0,-999.0,55,0.00,,,-99.99,,2013-04-28 05:48:00,
2013-04-27 21:53:00,36.7,22.3,29.79,North,0,0.0,-999.0,55,0.00,,,-99.99,,2013-04-28 05:53:00,
2013-04-27 21:58:00,36.5,20.9,29.79,North,0,0.0,-999.0,52,0.00,,,-99.99,,2013-04-28 05:58:00,
2013-04-27 22:03:00,36.8,21.0,29.80,North,0,0.0,-999.0,52,0.00,,,-99.99,,2013-04-28 06:03:00,
2013-04-27 22:08:00,36.7,21.5,29.80,North,0,0.0,-999.0,53,0.00,,,-99.99,,2013-04-28 06:08:00,
2013-04-27 22:13:00,36.2,21.9,29.80,North,0,0.0,-999.0,55,0.00,,,-99.99,,2013-04-28 06:13:00,
2013-04-27 22:18:00,36.7,21.4,29.80,North,0,0.0,-999.0,53,0.00,,,-99.99,,2013-04-28 06:18:00,
2013-04-27 22:23:00,37.0,21.8,29.80,North,0,0.0,-999.0,53,0.00,,,-99.99,,2013-04-28 06:23:00,
2013-04-27 22:28:00,37.2,22.3,29.80,North,0,0.0,-999.0,54,0.00,,,-99.99,,2013-04-28 06:28:00,
2013-04-27 22:33:00,36.8,22.7,29.80,North,0,0.0,-999.0,56,0.00,,,-99.99,,2013-04-28 06:33:00,
2013-04-27 22:38:00,36.8,22.5,29.80,North,0,0.0,-999.0,55,0.00,,,-99.99,,2013-04-28 06:38:00,
2013-04-27 22:43:00,37.0,22.2,29.80,North,0,0.0,-999.0,54,0.00,,,-99.99,,2013-04-28 06:43:00,
2013-04-27 22:48:00,36.8,22.7,29.80,North,0,0.0,-999.0,56,0.00,,,-99.99,,2013-04-28 06:48:00,
2013-04-27 22:53:00,36.8,22.5,29.80,North,0,0.0,-999.0,55,0.00,,,-99.99,,2013-04-28 06:53:00,
2013-04-27 22:58:00,36.8,22.5,29.80,North,0,0.0,-999.0,55,0.00,,,-99.99,,2013-04-28 06:58:00,
2013-04-27 23:03:00,37.0,23.3,29.82,North,0,0.0,-999.0,57,0.00,,,-99.99,,2013-04-28 07:03:00,
2013-04-27 23:08:00,36.8,23.2,29.82,North,0,0.0,-999.0,57,0.00,,,-99.99,,2013-04-28 07:08:00,
2013-04-27 23:13:00,36.6,22.3,29.82,North,0,0.0,-999.0,55,0.00,,,-99.99,,2013-04-28 07:13:00,
2013-04-27 23:18:00,36.4,22.7,29.82,North,0,0.0,-999.0,57,0.00,,,-99.99,,2013-04-28 07:18:00,
2013-04-27 23:23:00,36.3,22.8,29.82,North,0,0.0,-999.0,57,0.00,,,-99.99,,2013-04-28 07:23:00,
2013-04-27 23:28:00,36.3,23.2,29.82,North,0,0.0,-999.0,58,0.00,,,-99.99,,2013-04-28 07:28:00,
2013-04-27 23:33:00,36.5,22.6,29.82,North,0,0.0,-999.0,56,0.00,,,-99.99,,2013-04-28 07:33:00,
2013-04-27 23:38:00,36.3,21.7,29.82,North,0,0.0,-999.0,54,0.00,,,-99.99,,2013-04-28 07:38:00,
2013-04-27 23:43:00,36.1,22.3,29.82,North,0,0.0,-999.0,56,0.00,,,-99.99,,2013-04-28 07:43:00,
2013-04-27 23:48:00,36.3,22.4,29.82,North,0,0.0,-999.0,56,0.00,,,-99.99,,2013-04-28 07:48:00,
2013-04-27 23:53:00,36.4,21.6,29.82,North,0,0.0,-999.0,54,0.00,,,-99.99,,2013-04-28 07:53:00,
2013-04-27 23:58:00,36.3,21.1,29.82,North,0,0.0,-999.0,53,0.00,,,-99.99,,2013-04-28 07:58:00,